Tipton, IN

6:35 AM EST on February 28, 2017 (GMT -0500)
Tipton, In 46072 | | Change Station

Elev 876 ft 40.29 °N, 86.05 °W | Updated 35 seconds ago

Rain
Rain
45.9 °F
Feels Like 43 °F
N
5.0
Wind Variable Wind from ESE

Today
High -- | Low -- °F
--% Chance of Precip.
Yesterday
High -- | Low -- °F
Precip. -- in
Pressure 30.01 in
Visibility 10.0 miles
Clouds Few 2300 ft
Mostly Cloudy 3800 ft
Overcast 4800 ft
Windchill 43 °F
Dew Point 45 °F
Humidity 98%
Rainfall 0.05 in
Snow Depth Not available.
7:18 AM 6:35 PM
Waxing Crescent, 4% visible
METAR KOKK 281056Z AUTO 15013KT 10SM -RA FEW023 BKN038 OVC048 08/07 A2999 RMK AO2 RAB14 SLP160 P0004 T00780067
Pressure 30.01 in
Visibility 10.0 miles
Clouds Few 2300 ft
Mostly Cloudy 3800 ft
Overcast 4800 ft
Windchill 43 °F
Dew Point 45 °F
Humidity 98%
Rainfall 0.05 in
Snow Depth Not available.
7:18 AM 6:35 PM
Waxing Crescent, 4% visible
METAR KOKK 281056Z AUTO 15013KT 10SM -RA FEW023 BKN038 OVC048 08/07 A2999 RMK AO2 RAB14 SLP160 P0004 T00780067

Get Your Daily Forecast Email!

Thanks for signing up!

Be on the lookout for a verification email in your inbox.

You'll start receiving the daily forecast at 8 AM.

×

10-Day Weather Forecast

Almanac

Astronomy

Feb. 28, 2017 Rise Set
Actual Time
Civil Twilight
Nautical Twilight
Astronomical Twilight
Moon
Length of Visible Light
Length of Day
Tomorrow will be .
, % of the Moon is Illuminated

Today's Extremes

State Highs State Lows

Community

WunderPhotos

Upload Photos

1,962,540 photos uploaded!

WunderBlog® & News

Nearby

Air Quality

  Air Quality AQ Index Pollutant
Not available.

Snow Depth

Station Depth Elevation

Earthquake Activity

City Distance Mag. Time & Date
Minimum magnitude displayed is 2.5.

Coastal Water Temperatures

Place Temperature

Stations

Nearby Weather Stations

Station Location Temp. Windchill Dew Point Humidity Wind Precip. Elev Updated Type
                   

Watches & Warnings

There are currently no watches in effect.